Time;durP1;ratioP1;P1;durP2;ratioP2;P2;SDS_P1;SDS_P2;PMS_P1;PMS_P2;Temp;Humidity;BMP_temperature;BMP_pressure;BME280_temperature;BME280_humidity;BME280_pressure;Samples;Min_cycle;Max_cycle;Signal;HPM_P1;HPM_P2
2021/10/29 00:00:13;;;;;;;1.43;1.33;;;8.20;99.90;;;;;;5038522;28;20179;-68
2021/10/29 00:02:39;;;;;;;1.00;0.90;;;8.20;99.90;;;;;;5049085;28;20206;-68
2021/10/29 00:05:05;;;;;;;1.87;1.57;;;8.20;99.90;;;;;;5050645;28;20420;-69
2021/10/29 00:07:31;;;;;;;1.07;1.07;;;8.30;99.90;;;;;;5049863;28;20194;-68
2021/10/29 00:09:58;;;;;;;2.10;1.43;;;8.30;99.90;;;;;;5048431;28;20432;-68
2021/10/29 00:12:24;;;;;;;2.57;2.00;;;8.40;99.90;;;;;;5049176;28;20206;-68
2021/10/29 00:14:50;;;;;;;0.80;0.60;;;8.40;99.90;;;;;;5046707;28;20433;-68
2021/10/29 00:17:16;;;;;;;1.37;1.23;;;8.40;99.90;;;;;;5046670;28;20983;-69
2021/10/29 00:19:42;;;;;;;2.17;1.97;;;8.50;99.90;;;;;;5045876;28;20425;-68
2021/10/29 00:22:08;;;;;;;1.17;1.07;;;8.50;99.90;;;;;;5051298;28;20458;-69
2021/10/29 00:24:33;;;;;;;0.70;0.57;;;8.50;99.90;;;;;;5045829;28;20175;-68
2021/10/29 00:26:59;;;;;;;0.70;0.60;;;8.50;99.90;;;;;;5065625;28;20298;-69
2021/10/29 00:29:25;;;;;;;1.23;0.83;;;8.50;99.90;;;;;;5050564;28;20183;-68
2021/10/29 00:31:51;;;;;;;0.87;0.87;;;8.50;99.90;;;;;;5046913;28;20449;-68
2021/10/29 00:34:16;;;;;;;0.80;0.80;;;8.50;99.90;;;;;;5049552;28;20910;-69
2021/10/29 00:36:43;;;;;;;1.53;1.47;;;8.60;99.90;;;;;;5051005;28;20191;-68
2021/10/29 00:39:08;;;;;;;0.90;0.80;;;8.50;99.90;;;;;;5049925;28;20182;-69
2021/10/29 00:41:35;;;;;;;0.70;0.50;;;8.50;99.90;;;;;;5047920;28;20453;-68
2021/10/29 00:44:01;;;;;;;1.20;1.07;;;8.40;99.90;;;;;;5051678;28;20182;-68
2021/10/29 00:46:27;;;;;;;0.90;0.90;;;8.40;99.90;;;;;;5052083;28;20460;-68
2021/10/29 00:48:53;;;;;;;1.73;1.63;;;8.50;99.90;;;;;;5051455;28;21071;-68
2021/10/29 00:51:19;;;;;;;1.60;1.00;;;8.40;99.90;;;;;;5054116;28;20179;-68
2021/10/29 00:53:48;;;;;;;0.70;0.50;;;8.40;99.90;;;;;;5054528;28;20416;-68
2021/10/29 00:56:15;;;;;;;0.83;0.83;;;8.40;99.90;;;;;;5052350;28;20510;-68
2021/10/29 00:58:40;;;;;;;0.70;0.60;;;8.40;99.90;;;;;;5054154;28;20448;-68
2021/10/29 01:01:06;;;;;;;1.73;1.63;;;8.40;99.90;;;;;;5053873;28;20457;-68
2021/10/29 01:03:36;;;;;;;1.40;1.30;;;8.40;99.90;;;;;;5052998;28;20171;-69
2021/10/29 01:06:02;;;;;;;0.70;0.60;;;8.40;99.90;;;;;;5053517;28;20417;-69
2021/10/29 01:08:28;;;;;;;2.37;1.30;;;8.40;99.90;;;;;;5052865;28;20421;-68
2021/10/29 01:10:53;;;;;;;1.03;0.93;;;8.30;99.90;;;;;;5050573;28;20429;-68
2021/10/29 01:13:19;;;;;;;1.37;1.27;;;8.40;99.90;;;;;;5051775;28;20171;-69
2021/10/29 01:15:44;;;;;;;3.10;1.90;;;8.40;99.90;;;;;;5050520;28;20186;-67
2021/10/29 01:18:10;;;;;;;2.07;1.63;;;8.30;99.90;;;;;;5051001;28;20171;-68
2021/10/29 01:20:36;;;;;;;1.47;1.33;;;8.30;99.90;;;;;;5053370;28;20556;-68
2021/10/29 01:23:02;;;;;;;2.83;1.67;;;8.40;99.90;;;;;;5047860;28;20610;-69
2021/10/29 01:25:28;;;;;;;2.80;1.13;;;8.30;99.90;;;;;;5047709;28;20179;-70
2021/10/29 01:27:54;;;;;;;0.70;0.50;;;8.40;99.90;;;;;;5053292;28;20202;-68
2021/10/29 01:30:20;;;;;;;2.50;1.70;;;8.30;99.90;;;;;;5054138;28;20410;-68
2021/10/29 01:32:46;;;;;;;0.90;0.80;;;8.30;99.90;;;;;;5052206;28;20429;-68
2021/10/29 01:35:12;;;;;;;1.13;0.90;;;8.30;99.90;;;;;;5052935;28;20773;-68
2021/10/29 01:37:38;;;;;;;14.70;2.43;;;8.30;99.90;;;;;;5052108;28;20202;-68
2021/10/29 01:40:06;;;;;;;3.23;1.53;;;8.30;99.90;;;;;;5053064;28;20427;-68
2021/10/29 01:42:32;;;;;;;0.83;0.80;;;8.30;99.90;;;;;;5051612;28;21209;-69
2021/10/29 01:44:57;;;;;;;0.70;0.57;;;8.30;99.90;;;;;;5051605;28;20509;-69
2021/10/29 01:47:23;;;;;;;1.50;1.40;;;8.40;99.90;;;;;;5052594;28;20274;-69
2021/10/29 01:49:49;;;;;;;1.47;1.37;;;8.40;99.90;;;;;;5051125;28;20257;-69
2021/10/29 01:52:15;;;;;;;0.83;0.80;;;8.50;99.90;;;;;;5052895;28;20436;-68
2021/10/29 01:54:40;;;;;;;0.70;0.60;;;8.50;99.90;;;;;;5051235;28;20179;-68
2021/10/29 01:57:06;;;;;;;1.50;1.40;;;8.50;99.90;;;;;;5053063;28;20206;-68
2021/10/29 01:59:33;;;;;;;3.00;1.13;;;8.50;99.90;;;;;;5049310;28;20183;-68
2021/10/29 02:01:58;;;;;;;1.57;0.80;;;8.50;99.90;;;;;;5051406;28;20480;-68
2021/10/29 02:04:24;;;;;;;1.87;1.57;;;8.50;99.90;;;;;;5051125;28;20472;-68
2021/10/29 02:06:50;;;;;;;2.63;2.43;;;8.40;99.90;;;;;;5052226;28;20293;-68
2021/10/29 02:09:16;;;;;;;0.80;0.70;;;8.40;99.90;;;;;;5051761;28;20178;-68
2021/10/29 02:11:41;;;;;;;0.80;0.80;;;8.50;99.90;;;;;;5050592;28;20189;-68
2021/10/29 02:14:07;;;;;;;1.40;0.90;;;8.40;99.90;;;;;;5050777;28;20217;-68
2021/10/29 02:16:34;;;;;;;0.90;0.90;;;8.50;99.90;;;;;;5047100;28;20230;-68
2021/10/29 02:19:00;;;;;;;1.03;0.90;;;8.50;99.90;;;;;;5049250;28;20436;-68
2021/10/29 02:21:30;;;;;;;0.70;0.60;;;8.40;99.90;;;;;;5061207;28;20965;-68
2021/10/29 02:23:57;;;;;;;2.70;1.67;;;8.40;99.90;;;;;;5054563;28;20422;-68
2021/10/29 02:26:23;;;;;;;0.90;0.80;;;8.50;99.90;;;;;;5057962;28;20538;-68
2021/10/29 02:28:48;;;;;;;3.43;1.90;;;8.40;99.90;;;;;;5047573;28;20930;-68
2021/10/29 02:31:14;;;;;;;0.70;0.60;;;8.40;99.90;;;;;;5047814;28;20429;-68
2021/10/29 02:33:41;;;;;;;1.23;0.97;;;8.40;99.90;;;;;;5048221;28;20927;-68
2021/10/29 02:36:06;;;;;;;0.70;0.70;;;8.40;99.90;;;;;;5050892;28;20233;-68
2021/10/29 02:38:32;;;;;;;2.83;2.27;;;8.40;99.90;;;;;;5052771;28;20433;-68
2021/10/29 02:40:57;;;;;;;0.80;0.77;;;8.40;99.90;;;;;;5052225;28;20159;-68
2021/10/29 02:43:23;;;;;;;3.27;3.07;;;8.40;99.90;;;;;;5050617;28;20205;-68
2021/10/29 02:45:48;;;;;;;5.83;2.10;;;8.50;99.90;;;;;;5049606;28;20167;-68
2021/10/29 02:48:15;;;;;;;0.70;0.70;;;8.40;99.90;;;;;;5049529;28;20289;-68
2021/10/29 02:50:40;;;;;;;1.97;1.87;;;8.40;99.90;;;;;;5051289;28;20224;-68
2021/10/29 02:53:08;;;;;;;9.73;1.73;;;8.40;99.90;;;;;;5051279;28;20562;-69
2021/10/29 02:55:34;;;;;;;1.70;1.60;;;8.40;99.90;;;;;;5050516;28;20171;-69
2021/10/29 02:57:59;;;;;;;1.23;1.13;;;8.40;99.90;;;;;;5050904;28;20938;-68
2021/10/29 03:00:25;;;;;;;1.90;1.20;;;8.30;99.90;;;;;;5054930;28;20420;-69
2021/10/29 03:02:51;;;;;;;0.70;0.50;;;8.30;99.90;;;;;;5057664;28;20277;-69
2021/10/29 03:05:16;;;;;;;1.17;0.97;;;8.30;99.90;;;;;;5051400;28;20225;-68
2021/10/29 03:07:42;;;;;;;0.83;0.83;;;8.30;99.90;;;;;;5051041;28;20273;-68
2021/10/29 03:10:09;;;;;;;1.80;1.70;;;8.20;99.90;;;;;;5051600;28;20163;-68
2021/10/29 03:12:35;;;;;;;0.70;0.50;;;8.20;99.90;;;;;;5051517;28;20258;-69
2021/10/29 03:15:03;;;;;;;1.30;1.20;;;8.20;99.90;;;;;;5051560;28;20846;-68
2021/10/29 03:17:29;;;;;;;2.50;2.30;;;8.20;99.90;;;;;;5055642;28;20209;-69
2021/10/29 03:19:55;;;;;;;1.27;1.07;;;8.20;99.90;;;;;;5040433;28;20430;-68
2021/10/29 03:22:20;;;;;;;2.50;1.87;;;8.20;99.90;;;;;;5032136;28;20450;-68
2021/10/29 03:24:46;;;;;;;1.43;1.33;;;8.20;99.90;;;;;;5050169;28;20632;-68
2021/10/29 03:27:11;;;;;;;0.90;0.90;;;8.10;99.90;;;;;;5051668;28;20196;-68
2021/10/29 03:29:40;;;;;;;2.80;0.80;;;8.10;99.90;;;;;;5050743;28;20543;-68
2021/10/29 03:32:07;;;;;;;1.03;0.93;;;8.20;99.90;;;;;;5049834;28;20182;-69
2021/10/29 03:34:33;;;;;;;2.20;1.00;;;8.20;99.90;;;;;;5052004;28;20474;-68
2021/10/29 03:36:59;;;;;;;0.70;0.60;;;8.20;99.90;;;;;;5051371;28;20441;-68
2021/10/29 03:39:38;;;;;;;1.40;1.23;;;8.20;99.90;;;;;;5050939;28;20555;-69
2021/10/29 03:42:13;;;;;;;1.10;1.00;;;8.20;99.90;;;;;;5049525;28;20618;-68
2021/10/29 03:44:56;;;;;;;1.17;1.07;;;8.20;99.90;;;;;;5049881;28;20511;-68
2021/10/29 03:47:21;;;;;;;2.20;1.73;;;8.30;99.90;;;;;;5051168;28;20452;-69
2021/10/29 03:49:53;;;;;;;3.17;1.73;;;8.30;99.90;;;;;;5050522;28;21159;-69
2021/10/29 03:54:47;;;;;;;2.77;2.67;;;8.30;99.90;;;;;;5050258;28;20945;-68
2021/10/29 03:57:26;;;;;;;1.63;1.53;;;8.30;99.90;;;;;;5050606;28;20209;-68
2021/10/29 03:59:55;;;;;;;0.87;0.80;;;8.40;99.90;;;;;;5051275;28;20433;-68
2021/10/29 04:02:23;;;;;;;0.70;0.63;;;8.40;99.90;;;;;;5050090;28;20830;-68
2021/10/29 04:04:49;;;;;;;0.70;0.60;;;8.40;99.90;;;;;;5051150;28;20474;-68
2021/10/29 04:07:14;;;;;;;1.00;0.93;;;8.40;99.90;;;;;;5050457;28;20433;-68
2021/10/29 04:09:42;;;;;;;2.30;2.10;;;8.40;99.90;;;;;;5044937;28;20494;-68
2021/10/29 04:12:08;;;;;;;1.23;0.80;;;8.40;99.90;;;;;;5044988;28;20228;-68
2021/10/29 04:14:33;;;;;;;1.00;0.73;;;8.40;99.90;;;;;;5050450;28;20441;-68
2021/10/29 04:16:59;;;;;;;1.33;1.23;;;8.50;99.90;;;;;;5048862;28;20221;-68
2021/10/29 04:19:24;;;;;;;1.47;1.37;;;8.50;99.90;;;;;;5053840;28;20179;-69
2021/10/29 04:21:50;;;;;;;1.30;1.20;;;8.50;99.90;;;;;;5053960;28;20252;-68
2021/10/29 04:24:16;;;;;;;1.63;1.53;;;8.50;99.90;;;;;;5055421;28;20241;-68
2021/10/29 04:26:41;;;;;;;0.90;0.63;;;8.50;99.90;;;;;;5052400;28;20234;-68
2021/10/29 04:29:15;;;;;;;4.33;2.40;;;8.50;99.90;;;;;;5054626;28;20182;-69
2021/10/29 04:31:51;;;;;;;2.83;2.73;;;8.50;99.90;;;;;;5051733;28;20835;-68
2021/10/29 04:34:25;;;;;;;1.20;1.10;;;8.50;99.90;;;;;;5053740;28;20431;-69
2021/10/29 04:36:51;;;;;;;0.70;0.50;;;8.50;99.90;;;;;;5048982;28;20437;-69
2021/10/29 04:39:18;;;;;;;1.20;0.73;;;8.50;99.90;;;;;;5053888;28;20429;-68
2021/10/29 04:41:46;;;;;;;0.97;0.97;;;8.50;99.90;;;;;;5054159;28;20500;-69
2021/10/29 04:44:13;;;;;;;1.10;1.00;;;8.50;99.90;;;;;;5052945;28;20799;-69
2021/10/29 04:46:39;;;;;;;2.73;1.30;;;8.50;99.90;;;;;;5051959;28;20451;-69
2021/10/29 04:49:05;;;;;;;1.37;1.07;;;8.40;99.90;;;;;;5053235;28;20429;-68
2021/10/29 04:51:32;;;;;;;3.83;3.20;;;8.40;99.90;;;;;;5052104;28;20464;-68
2021/10/29 04:53:58;;;;;;;1.57;0.87;;;8.40;99.90;;;;;;5052957;28;20425;-69
2021/10/29 04:56:24;;;;;;;2.93;1.30;;;8.40;99.90;;;;;;5053651;28;20977;-68
2021/10/29 04:58:49;;;;;;;1.33;1.23;;;8.40;99.90;;;;;;5052748;28;20433;-68
2021/10/29 05:01:15;;;;;;;5.23;3.33;;;8.40;99.90;;;;;;5053188;28;20201;-68
2021/10/29 05:03:41;;;;;;;2.03;1.27;;;8.40;99.90;;;;;;5053212;28;20224;-68
2021/10/29 05:06:07;;;;;;;1.87;1.77;;;8.30;99.90;;;;;;5052270;28;20695;-69
2021/10/29 05:08:35;;;;;;;0.93;0.83;;;8.30;99.90;;;;;;5053275;28;20830;-68
2021/10/29 05:11:01;;;;;;;3.77;2.77;;;8.30;99.90;;;;;;5050347;28;20788;-68
2021/10/29 05:13:27;;;;;;;0.80;0.80;;;8.30;99.90;;;;;;5050291;28;20437;-69
2021/10/29 05:15:52;;;;;;;3.73;2.03;;;8.30;99.90;;;;;;5051143;28;20167;-69
2021/10/29 05:18:18;;;;;;;1.47;0.77;;;8.30;99.90;;;;;;5052611;28;20177;-69
2021/10/29 05:20:44;;;;;;;0.70;0.50;;;8.30;99.90;;;;;;5051690;28;20175;-69
2021/10/29 05:23:11;;;;;;;3.13;1.47;;;8.40;99.90;;;;;;5054360;28;20460;-69
2021/10/29 05:25:37;;;;;;;2.27;2.10;;;8.30;99.90;;;;;;5051233;28;20258;-69
2021/10/29 05:28:02;;;;;;;0.70;0.50;;;8.30;99.90;;;;;;5053958;28;20464;-69
2021/10/29 05:30:28;;;;;;;0.70;0.60;;;8.30;99.90;;;;;;5051956;28;20796;-69
2021/10/29 05:32:54;;;;;;;1.40;1.30;;;8.40;99.90;;;;;;5052992;28;20175;-69
2021/10/29 05:35:20;;;;;;;1.50;1.37;;;8.40;99.90;;;;;;5053846;28;20167;-68
2021/10/29 05:37:45;;;;;;;1.27;1.17;;;8.30;99.90;;;;;;5053493;28;20559;-68
2021/10/29 05:40:12;;;;;;;0.70;0.50;;;8.30;99.90;;;;;;5053211;28;20571;-69
2021/10/29 05:42:37;;;;;;;2.40;1.93;;;8.30;99.90;;;;;;5049003;28;20199;-69
2021/10/29 05:45:06;;;;;;;3.47;1.83;;;8.30;99.90;;;;;;5047930;28;20424;-69
2021/10/29 05:47:32;;;;;;;1.10;1.00;;;8.30;99.90;;;;;;5053253;28;20191;-69
2021/10/29 05:49:58;;;;;;;2.00;1.90;;;8.40;99.90;;;;;;5051678;28;20432;-68
2021/10/29 05:52:26;;;;;;;2.00;1.87;;;8.30;99.90;;;;;;5051744;28;20186;-68
2021/10/29 05:57:36;;;;;;;2.50;2.30;;;8.40;99.90;;;;;;5053711;28;20452;-69
2021/10/29 06:00:02;;;;;;;1.50;1.40;;;8.30;99.90;;;;;;5051346;28;20425;-68
2021/10/29 06:02:28;;;;;;;5.17;2.13;;;8.30;99.90;;;;;;5051858;28;20567;-68
2021/10/29 06:04:53;;;;;;;6.30;2.30;;;8.30;99.90;;;;;;5051273;28;20425;-68
2021/10/29 06:07:19;;;;;;;0.80;0.70;;;8.30;99.90;;;;;;5053258;28;20191;-69
2021/10/29 06:09:45;;;;;;;27.03;2.10;;;8.30;99.90;;;;;;5052034;28;20186;-68
2021/10/29 06:12:11;;;;;;;0.70;0.50;;;8.20;99.90;;;;;;5050462;28;20179;-68
2021/10/29 06:14:37;;;;;;;0.70;0.60;;;8.20;99.90;;;;;;5050233;28;20181;-69
2021/10/29 06:17:06;;;;;;;3.90;2.07;;;8.20;99.90;;;;;;5051258;28;20445;-69
2021/10/29 06:19:31;;;;;;;1.63;1.40;;;8.10;99.90;;;;;;5052415;28;20163;-68
2021/10/29 06:22:03;;;;;;;0.97;0.90;;;8.20;99.90;;;;;;5052481;28;21082;-68
2021/10/29 06:24:29;;;;;;;1.50;1.33;;;8.10;99.90;;;;;;5051233;28;20190;-69
2021/10/29 06:27:02;;;;;;;4.47;2.20;;;8.10;99.90;;;;;;5051769;28;20514;-68
2021/10/29 06:29:28;;;;;;;1.10;0.97;;;8.10;99.90;;;;;;5052407;28;20437;-68
2021/10/29 06:31:54;;;;;;;0.70;0.60;;;8.10;99.90;;;;;;5052061;28;20436;-69
2021/10/29 06:34:20;;;;;;;1.20;1.07;;;8.10;99.90;;;;;;5052864;28;20245;-68
2021/10/29 06:36:47;;;;;;;0.70;0.50;;;8.20;99.90;;;;;;5050731;28;20452;-69
2021/10/29 06:39:13;;;;;;;1.33;1.23;;;8.10;99.90;;;;;;5051529;28;20930;-69
2021/10/29 06:41:38;;;;;;;1.17;1.07;;;8.10;99.90;;;;;;5051986;28;20488;-69
2021/10/29 07:00:00;;;;;;;1.53;1.43;;;8.10;99.90;;;;;;5045466;28;20512;-69
2021/10/29 07:40:27;;;;;;;2.13;2.03;;;8.90;99.90;;;;;;5052103;28;20822;-69
2021/10/29 07:43:03;;;;;;;0.70;0.70;;;9.00;99.90;;;;;;5052052;28;20456;-69
2021/10/29 07:45:29;;;;;;;1.57;1.23;;;9.00;99.90;;;;;;5051479;28;20253;-69
2021/10/29 07:47:55;;;;;;;2.20;2.10;;;9.00;99.90;;;;;;5051977;28;20421;-69
2021/10/29 07:50:22;;;;;;;4.47;2.60;;;9.00;99.90;;;;;;5051821;28;20489;-69
2021/10/29 07:52:50;;;;;;;0.80;0.73;;;9.00;99.90;;;;;;5052683;28;20457;-70
2021/10/29 07:55:22;;;;;;;1.43;1.33;;;9.00;99.90;;;;;;5055675;28;20410;-69
2021/10/29 07:57:49;;;;;;;1.10;1.00;;;9.10;99.90;;;;;;5055563;28;20453;-69
2021/10/29 08:00:19;;;;;;;5.37;4.63;;;9.20;99.90;;;;;;5055883;28;20493;-69
2021/10/29 08:02:47;;;;;;;3.37;3.10;;;9.30;99.90;;;;;;5055576;28;20989;-69
2021/10/29 08:05:13;;;;;;;0.90;0.90;;;9.30;99.90;;;;;;5055813;28;20416;-69
2021/10/29 08:07:39;;;;;;;1.03;0.93;;;9.40;99.90;;;;;;5055531;28;20445;-69
2021/10/29 08:10:06;;;;;;;1.53;1.13;;;9.40;99.90;;;;;;5055804;28;20408;-69
2021/10/29 08:12:35;;;;;;;2.33;2.23;;;9.40;99.90;;;;;;5054911;28;20543;-69
2021/10/29 08:15:03;;;;;;;3.30;1.67;;;9.30;99.90;;;;;;5053305;28;20432;-69
2021/10/29 08:17:32;;;;;;;1.10;1.00;;;9.30;99.90;;;;;;5054969;28;20915;-70
2021/10/29 08:19:58;;;;;;;0.90;0.70;;;9.40;99.90;;;;;;5075449;28;20996;-70
2021/10/29 08:22:24;;;;;;;1.20;1.10;;;9.50;99.90;;;;;;5055422;28;20480;-70
2021/10/29 08:24:49;;;;;;;3.57;3.27;;;9.50;99.90;;;;;;5070653;28;20412;-70
2021/10/29 08:27:15;;;;;;;0.80;0.70;;;9.60;99.90;;;;;;5075089;28;20698;-69
2021/10/29 08:29:41;;;;;;;3.03;2.93;;;9.70;99.90;;;;;;5058536;28;20198;-69
2021/10/29 08:32:08;;;;;;;2.23;1.73;;;9.70;99.90;;;;;;5055327;28;20517;-69
2021/10/29 08:34:34;;;;;;;1.13;1.03;;;9.90;99.90;;;;;;5055300;28;20241;-69
2021/10/29 08:37:01;;;;;;;4.10;1.93;;;9.90;99.90;;;;;;5054865;28;20425;-69
2021/10/29 08:39:28;;;;;;;2.00;1.90;;;10.00;99.90;;;;;;5054496;28;20425;-69
2021/10/29 08:41:55;;;;;;;2.33;2.13;;;10.10;99.90;;;;;;5054911;28;20539;-69
2021/10/29 08:44:21;;;;;;;0.90;0.70;;;10.30;99.90;;;;;;5054971;28;20404;-69
2021/10/29 08:46:47;;;;;;;9.20;2.33;;;10.60;99.90;;;;;;5054624;28;20425;-69
2021/10/29 08:49:16;;;;;;;1.00;0.90;;;10.80;99.90;;;;;;5054998;28;20217;-68
2021/10/29 08:51:42;;;;;;;2.07;1.83;;;11.00;99.90;;;;;;5055092;28;20402;-69
2021/10/29 08:54:08;;;;;;;2.07;1.17;;;11.20;99.90;;;;;;5054511;28;20413;-69
2021/10/29 08:56:34;;;;;;;1.10;1.00;;;11.30;99.90;;;;;;5054279;28;20445;-69
2021/10/29 08:59:29;;;;;;;1.77;1.10;;;11.60;99.90;;;;;;5054582;28;20416;-69
2021/10/29 09:02:13;;;;;;;0.70;0.50;;;11.50;99.90;;;;;;5053182;28;20453;-69
2021/10/29 09:32:00;;;;;;;1.57;1.47;;;12.00;99.90;;;;;;5052727;28;20799;-68
2021/10/29 09:34:26;;;;;;;0.90;0.80;;;12.20;99.90;;;;;;5053906;28;20409;-68
2021/10/29 09:36:52;;;;;;;1.30;1.07;;;12.30;99.90;;;;;;5063421;28;20442;-69
2021/10/29 09:39:20;;;;;;;1.60;1.33;;;12.60;99.90;;;;;;5034168;28;20160;-69
2021/10/29 09:41:59;;;;;;;3.67;1.70;;;12.90;99.90;;;;;;5038642;28;20447;-69
2021/10/29 09:44:46;;;;;;;1.37;1.27;;;13.00;99.90;;;;;;5034097;28;20990;-69
2021/10/29 09:47:17;;;;;;;1.97;1.40;;;13.40;99.90;;;;;;5048103;28;20472;-69
2021/10/29 09:57:33;;;;;;;9.60;1.07;;;13.80;99.90;;;;;;5053796;28;20852;-69
2021/10/29 10:00:00;;;;;;;1.73;1.00;;;13.80;99.90;;;;;;5053754;28;20402;-69
2021/10/29 10:02:28;;;;;;;1.17;1.03;;;13.80;99.90;;;;;;5053240;28;20463;-68
2021/10/29 10:04:56;;;;;;;1.97;1.87;;;13.70;99.90;;;;;;5052987;28;20842;-71
2021/10/29 10:07:26;;;;;;;3.57;2.83;;;13.70;99.90;;;;;;5055435;28;20448;-68
2021/10/29 10:09:57;;;;;;;1.13;1.03;;;13.80;99.90;;;;;;5054303;28;20890;-69
2021/10/29 10:12:23;;;;;;;1.53;1.43;;;13.50;99.90;;;;;;5053392;28;20440;-69
2021/10/29 10:14:54;;;;;;;5.77;1.63;;;14.30;99.90;;;;;;5067756;28;20833;-69
2021/10/29 10:17:21;;;;;;;3.47;1.43;;;15.10;99.90;;;;;;5052222;28;20473;-69
2021/10/29 10:19:49;;;;;;;2.13;1.60;;;15.70;99.90;;;;;;5052666;28;20914;-70
2021/10/29 10:22:18;;;;;;;1.47;1.37;;;16.70;99.90;;;;;;5052502;28;20449;-69
2021/10/29 10:24:50;;;;;;;6.63;1.20;;;16.20;99.90;;;;;;5052915;28;20414;-69
2021/10/29 10:43:37;;;;;;;1.27;1.17;;;15.10;99.90;;;;;;5049547;28;20453;-68
2021/10/29 10:46:21;;;;;;;2.10;1.00;;;14.70;99.90;;;;;;5050698;28;20444;-68
2021/10/29 10:51:35;;;;;;;6.20;1.83;;;15.00;99.90;;;;;;5050507;28;20417;-68
2021/10/29 10:54:11;;;;;;;1.40;1.30;;;14.80;99.90;;;;;;5049525;28;20425;-68
2021/10/29 10:57:09;;;;;;;1.33;1.23;;;15.10;99.90;;;;;;5049177;28;20453;-69
2021/10/29 11:10:15;;;;;;;1.43;1.33;;;18.00;99.90;;;;;;5049535;28;20930;-69
2021/10/29 11:12:40;;;;;;;1.73;1.17;;;19.60;99.90;;;;;;5047306;28;20524;-69
2021/10/29 11:15:11;;;;;;;5.60;3.53;;;19.90;99.90;;;;;;5052031;28;20514;-69
2021/10/29 11:17:42;;;;;;;1.73;1.13;;;21.20;99.90;;;;;;5050451;28;20198;-70
2021/10/29 11:20:10;;;;;;;1.40;1.30;;;21.00;99.90;;;;;;5047818;28;20426;-69
2021/10/29 11:22:46;;;;;;;3.23;2.00;;;21.10;99.90;;;;;;5048954;28;20469;-69
2021/10/29 11:25:18;;;;;;;1.00;0.90;;;20.70;99.90;;;;;;5051067;28;20474;-70
2021/10/29 11:27:44;;;;;;;1.63;1.10;;;20.30;99.90;;;;;;5051961;28;20424;-69
2021/10/29 11:30:09;;;;;;;0.87;0.80;;;20.10;99.90;;;;;;5051898;28;20898;-69
2021/10/29 11:32:38;;;;;;;3.53;2.13;;;19.70;99.90;;;;;;5048165;28;20268;-69
2021/10/29 11:35:04;;;;;;;1.50;1.40;;;19.30;99.90;;;;;;5051760;28;20678;-69
2021/10/29 11:37:34;;;;;;;1.27;0.90;;;18.70;99.90;;;;;;5051437;28;20437;-69
2021/10/29 11:40:00;;;;;;;1.97;1.23;;;18.50;99.90;;;;;;5050775;28;20434;-69
2021/10/29 11:42:28;;;;;;;1.13;0.90;;;18.50;99.90;;;;;;5051597;28;20811;-69
2021/10/29 11:44:55;;;;;;;1.30;1.00;;;18.50;99.90;;;;;;5051715;28;20899;-69
2021/10/29 11:47:21;;;;;;;0.90;0.70;;;18.20;99.90;;;;;;5049778;28;20449;-69
2021/10/29 11:49:47;;;;;;;1.90;1.80;;;18.00;99.90;;;;;;5051573;28;20421;-69
2021/10/29 11:52:14;;;;;;;3.10;2.30;;;18.90;99.90;;;;;;5051826;28;20407;-69
2021/10/29 11:54:44;;;;;;;3.63;1.53;;;20.30;99.90;;;;;;5051331;28;20502;-69
2021/10/29 12:07:37;;;;;;;5.53;1.30;;;23.00;98.80;;;;;;5050562;28;20468;-69
2021/10/29 12:10:12;;;;;;;1.03;0.93;;;21.90;96.50;;;;;;5051641;28;20413;-69
2021/10/29 12:12:43;;;;;;;1.20;1.00;;;21.20;97.70;;;;;;5050791;28;20170;-70
2021/10/29 12:15:15;;;;;;;1.10;1.00;;;20.80;98.10;;;;;;5050857;28;20421;-69
2021/10/29 12:20:20;;;;;;;1.60;1.50;;;19.70;99.90;;;;;;5050736;28;20914;-69
2021/10/29 12:22:53;;;;;;;0.83;0.67;;;19.30;99.90;;;;;;5049278;28;20828;-68
2021/10/29 12:28:01;;;;;;;0.80;0.70;;;18.80;99.90;;;;;;5051360;28;20441;-69
2021/10/29 13:03:08;;;;;;;1.47;1.37;;;19.30;99.90;;;;;;5048391;28;20444;-70
2021/10/29 13:05:35;;;;;;;1.10;0.93;;;20.50;99.90;;;;;;5053874;28;20762;-69
2021/10/29 13:08:19;;;;;;;0.90;0.70;;;21.30;99.90;;;;;;5052651;28;20964;-68
2021/10/29 13:10:45;;;;;;;1.20;0.90;;;22.10;99.90;;;;;;5052991;28;20512;-69
2021/10/29 13:13:19;;;;;;;1.33;0.90;;;22.70;98.00;;;;;;5054272;28;20544;-69
2021/10/29 13:15:46;;;;;;;0.83;0.60;;;22.50;93.80;;;;;;5053979;28;20170;-69
2021/10/29 13:18:17;;;;;;;0.80;0.77;;;22.90;93.40;;;;;;5052670;28;20436;-70
2021/10/29 13:26:45;;;;;;;0.80;0.70;;;22.70;90.90;;;;;;5054238;28;20433;-67
2021/10/29 13:29:09;;;;;;;1.05;0.88;;;22.80;91.00;;;;;;5043099;28;20431;-67
2021/10/29 13:37:00;;;;;;;3.53;2.40;;;23.20;90.80;;;;;;5053653;28;21323;-67
2021/10/29 13:58:27;;;;;;;0.80;0.60;;;22.50;90.40;;;;;;5053599;28;20516;-68
2021/10/29 14:03:48;;;;;;;0.80;0.60;;;22.00;91.20;;;;;;5053869;28;20496;-68
2021/10/29 14:30:27;;;;;;;1.00;0.80;;;21.70;93.50;;;;;;5053179;28;20178;-68
2021/10/29 14:33:31;;;;;;;2.17;1.20;;;21.40;93.50;;;;;;5053108;28;20467;-69
2021/10/29 14:35:48;;;;;;;1.07;0.97;;;21.50;94.00;;;;;;5050170;28;20424;-67
2021/10/29 14:38:37;;;;;;;0.80;0.70;;;21.00;94.30;;;;;;5052745;28;20475;-68
2021/10/29 14:41:09;;;;;;;0.70;0.60;;;21.10;95.00;;;;;;5052867;28;20416;-67
2021/10/29 14:43:48;;;;;;;0.80;0.80;;;21.10;95.20;;;;;;5048645;28;20950;-67
2021/10/29 15:02:34;;;;;;;1.07;0.80;;;20.50;98.20;;;;;;5051390;28;20523;-68
2021/10/29 15:16:12;;;;;;;0.70;0.60;;;19.30;99.90;;;;;;5051715;28;20501;-69
2021/10/29 15:27:06;;;;;;;2.03;1.23;;;18.80;99.90;;;;;;5051917;28;20803;-68
2021/10/29 15:29:51;;;;;;;1.50;1.00;;;18.90;99.90;;;;;;5051640;28;20436;-69
2021/10/29 15:45:40;;;;;;;1.00;0.90;;;17.80;99.90;;;;;;5047506;28;20519;-68
2021/10/29 15:48:14;;;;;;;1.10;1.07;;;17.70;99.90;;;;;;5050847;28;20505;-68
2021/10/29 15:50:40;;;;;;;0.70;0.60;;;17.60;99.90;;;;;;5047546;28;20492;-68
2021/10/29 15:53:12;;;;;;;2.50;2.30;;;17.50;99.90;;;;;;5044782;28;20444;-67
2021/10/29 15:56:09;;;;;;;0.90;0.80;;;17.40;99.90;;;;;;5047675;28;20926;-68
2021/10/29 16:17:10;;;;;;;4.13;0.80;;;16.80;99.90;;;;;;5056404;28;20435;-70
2021/10/29 16:19:37;;;;;;;0.80;0.70;;;16.80;99.90;;;;;;5053564;28;20433;-71
2021/10/29 16:22:05;;;;;;;0.70;0.50;;;16.80;99.90;;;;;;5051159;28;20456;-71
2021/10/29 16:24:31;;;;;;;0.80;0.60;;;16.60;99.90;;;;;;5050848;28;20429;-72
2021/10/29 16:26:58;;;;;;;1.00;0.93;;;16.40;99.90;;;;;;5056305;28;20429;-70
2021/10/29 16:29:25;;;;;;;1.10;1.00;;;16.10;99.90;;;;;;5057215;28;20949;-71
2021/10/29 16:31:51;;;;;;;1.00;0.70;;;16.00;99.90;;;;;;5057250;28;20855;-71
2021/10/29 16:34:17;;;;;;;1.37;0.93;;;15.90;99.90;;;;;;5056949;28;20421;-71
2021/10/29 16:36:42;;;;;;;0.97;0.80;;;15.80;99.90;;;;;;5056748;28;20852;-71
2021/10/29 16:39:08;;;;;;;1.70;1.60;;;15.60;99.90;;;;;;5056504;28;20175;-71
2021/10/29 16:41:34;;;;;;;0.80;0.70;;;15.50;99.90;;;;;;5056739;28;20308;-71
2021/10/29 16:44:00;;;;;;;1.27;1.17;;;15.50;99.90;;;;;;5056656;28;20449;-71
2021/10/29 16:46:26;;;;;;;0.80;0.80;;;15.40;99.90;;;;;;5056094;28;20437;-71
2021/10/29 16:48:52;;;;;;;0.80;0.70;;;15.20;99.90;;;;;;5059065;28;20179;-71
2021/10/29 16:51:18;;;;;;;1.27;0.90;;;15.30;99.90;;;;;;5059023;28;20409;-71
2021/10/29 16:53:44;;;;;;;0.77;0.63;;;15.20;99.90;;;;;;5059086;28;20175;-71
2021/10/29 16:56:12;;;;;;;0.90;0.80;;;15.10;99.90;;;;;;5057937;28;20436;-70
2021/10/29 16:58:38;;;;;;;1.00;0.77;;;15.00;99.90;;;;;;5058135;28;20515;-71
2021/10/29 17:01:04;;;;;;;1.20;1.10;;;15.00;99.90;;;;;;5057789;28;20485;-71
2021/10/29 17:03:30;;;;;;;2.17;1.97;;;15.10;99.90;;;;;;5059400;28;20481;-70
2021/10/29 17:05:56;;;;;;;0.80;0.67;;;15.00;99.90;;;;;;5057913;28;20198;-71
2021/10/29 17:08:22;;;;;;;1.27;1.17;;;15.00;99.90;;;;;;5057663;28;20170;-71
2021/10/29 17:10:47;;;;;;;1.20;1.10;;;15.00;99.90;;;;;;5040302;28;20464;-71
2021/10/29 17:13:13;;;;;;;1.87;0.87;;;15.00;99.90;;;;;;5056117;28;20433;-71
2021/10/29 17:15:39;;;;;;;0.80;0.60;;;15.00;99.90;;;;;;5055480;28;20179;-71
2021/10/29 17:18:05;;;;;;;1.50;1.10;;;15.00;99.90;;;;;;5055386;28;20421;-71
2021/10/29 17:20:32;;;;;;;0.70;0.50;;;14.90;99.90;;;;;;5053195;28;20203;-72
2021/10/29 17:22:58;;;;;;;0.80;0.70;;;15.00;99.90;;;;;;5055879;28;20495;-70
2021/10/29 17:25:24;;;;;;;0.80;0.60;;;15.00;99.90;;;;;;5054526;28;20421;-72
2021/10/29 17:27:49;;;;;;;0.90;0.73;;;15.00;99.90;;;;;;5055034;28;20198;-71
2021/10/29 17:30:16;;;;;;;3.03;1.63;;;14.90;99.90;;;;;;5053909;28;20651;-71
2021/10/29 17:32:44;;;;;;;0.70;0.60;;;14.90;99.90;;;;;;5057489;28;20182;-71
2021/10/29 17:35:10;;;;;;;0.70;0.50;;;14.90;99.90;;;;;;5055678;28;20544;-71
2021/10/29 17:37:36;;;;;;;1.27;1.17;;;14.80;99.90;;;;;;5058078;28;20989;-72
2021/10/29 17:40:04;;;;;;;0.90;0.90;;;14.80;99.90;;;;;;5057420;28;20174;-71
2021/10/29 17:42:30;;;;;;;0.80;0.80;;;14.80;99.90;;;;;;5057769;28;20544;-71
2021/10/29 17:44:56;;;;;;;1.20;0.70;;;14.80;99.90;;;;;;5054601;28;20510;-72
2021/10/29 17:47:24;;;;;;;1.63;1.17;;;14.80;99.90;;;;;;5054563;28;20187;-71
2021/10/29 17:49:53;;;;;;;0.77;0.70;;;14.80;99.90;;;;;;5054527;28;20428;-71
2021/10/29 17:52:19;;;;;;;6.70;1.00;;;14.80;99.90;;;;;;5054785;28;20433;-70